Terminal Aerodrome Forecast
Issued by NWS Newport/Morehead City, NC

Home | Current Version | Previous Version | Graphics & Text | Print | Product List | Glossary On
Versions: 1 2 3 4 5 6 7 8 9 10 11 12 13
581
FTUS42 KMHX 191120
TAFEWN
TAF
KEWN 191120Z 1912/2012 00000KT P6SM SCT015
     FM191400 00000KT P6SM SCT050
     FM191700 VRB03KT P6SM VCTS SCT035CB
     FM192300 19005KT P6SM SCT080=

USA.gov is the U.S. government's official web portal to all federal, state and local government web resources and services.